sensor_id;sensor_type;location;lat;lon;timestamp;P1;durP1;ratioP1;P2;durP2;ratioP2
32501;SDS011;18952;52.516;13.460;2024-02-26T00:01:01;15.88;;;14.18;;
32501;SDS011;18952;52.516;13.460;2024-02-26T00:03:28;16.05;;;13.82;;
32501;SDS011;18952;52.516;13.460;2024-02-26T00:05:55;16.42;;;14.40;;
32501;SDS011;18952;52.516;13.460;2024-02-26T00:08:21;15.68;;;14.07;;
32501;SDS011;18952;52.516;13.460;2024-02-26T00:10:48;18.17;;;14.35;;
32501;SDS011;18952;52.516;13.460;2024-02-26T00:13:15;17.23;;;13.73;;
32501;SDS011;18952;52.516;13.460;2024-02-26T00:15:42;17.47;;;14.30;;
32501;SDS011;18952;52.516;13.460;2024-02-26T00:18:08;16.58;;;14.27;;
32501;SDS011;18952;52.516;13.460;2024-02-26T00:20:35;17.05;;;14.00;;
32501;SDS011;18952;52.516;13.460;2024-02-26T00:23:02;18.65;;;13.88;;
32501;SDS011;18952;52.516;13.460;2024-02-26T00:25:29;18.13;;;14.52;;
32501;SDS011;18952;52.516;13.460;2024-02-26T00:27:56;17.93;;;13.57;;
32501;SDS011;18952;52.516;13.460;2024-02-26T00:30:23;16.85;;;13.75;;
32501;SDS011;18952;52.516;13.460;2024-02-26T00:32:51;19.50;;;13.52;;
32501;SDS011;18952;52.516;13.460;2024-02-26T00:35:17;18.70;;;13.77;;
32501;SDS011;18952;52.516;13.460;2024-02-26T00:37:44;15.45;;;13.63;;
32501;SDS011;18952;52.516;13.460;2024-02-26T00:40:11;15.05;;;13.20;;
32501;SDS011;18952;52.516;13.460;2024-02-26T00:42:38;15.85;;;13.20;;
32501;SDS011;18952;52.516;13.460;2024-02-26T00:45:05;16.90;;;13.20;;
32501;SDS011;18952;52.516;13.460;2024-02-26T00:47:32;15.48;;;13.13;;
32501;SDS011;18952;52.516;13.460;2024-02-26T00:49:59;16.25;;;13.15;;
32501;SDS011;18952;52.516;13.460;2024-02-26T00:52:26;14.95;;;12.52;;
32501;SDS011;18952;52.516;13.460;2024-02-26T00:54:53;16.20;;;12.50;;
32501;SDS011;18952;52.516;13.460;2024-02-26T00:57:23;14.88;;;12.18;;
32501;SDS011;18952;52.516;13.460;2024-02-26T00:59:50;14.00;;;12.10;;
32501;SDS011;18952;52.516;13.460;2024-02-26T01:02:17;13.05;;;11.55;;
32501;SDS011;18952;52.516;13.460;2024-02-26T01:04:44;13.20;;;11.57;;
32501;SDS011;18952;52.516;13.460;2024-02-26T01:07:11;13.45;;;10.32;;
32501;SDS011;18952;52.516;13.460;2024-02-26T01:09:38;13.30;;;9.93;;
32501;SDS011;18952;52.516;13.460;2024-02-26T01:12:05;11.75;;;9.35;;
32501;SDS011;18952;52.516;13.460;2024-02-26T01:14:31;11.05;;;8.82;;
32501;SDS011;18952;52.516;13.460;2024-02-26T01:16:59;10.38;;;8.00;;
32501;SDS011;18952;52.516;13.460;2024-02-26T01:19:26;11.48;;;8.90;;
32501;SDS011;18952;52.516;13.460;2024-02-26T01:21:53;11.88;;;8.60;;
32501;SDS011;18952;52.516;13.460;2024-02-26T01:24:20;9.77;;;8.40;;
32501;SDS011;18952;52.516;13.460;2024-02-26T01:26:47;10.38;;;8.57;;
32501;SDS011;18952;52.516;13.460;2024-02-26T01:29:14;12.57;;;8.40;;
32501;SDS011;18952;52.516;13.460;2024-02-26T01:31:40;9.85;;;8.20;;
32501;SDS011;18952;52.516;13.460;2024-02-26T01:34:07;13.45;;;8.68;;
32501;SDS011;18952;52.516;13.460;2024-02-26T01:36:34;10.60;;;8.05;;
32501;SDS011;18952;52.516;13.460;2024-02-26T01:39:01;10.40;;;8.73;;
32501;SDS011;18952;52.516;13.460;2024-02-26T01:41:28;8.98;;;8.15;;
32501;SDS011;18952;52.516;13.460;2024-02-26T01:43:55;17.60;;;9.20;;
32501;SDS011;18952;52.516;13.460;2024-02-26T01:46:21;11.52;;;8.93;;
32501;SDS011;18952;52.516;13.460;2024-02-26T01:48:49;8.95;;;8.05;;
32501;SDS011;18952;52.516;13.460;2024-02-26T01:51:16;9.98;;;8.20;;
32501;SDS011;18952;52.516;13.460;2024-02-26T01:53:44;13.73;;;8.40;;
32501;SDS011;18952;52.516;13.460;2024-02-26T01:56:11;10.27;;;8.40;;
32501;SDS011;18952;52.516;13.460;2024-02-26T01:58:38;11.88;;;8.48;;
32501;SDS011;18952;52.516;13.460;2024-02-26T02:01:06;10.70;;;8.00;;
32501;SDS011;18952;52.516;13.460;2024-02-26T02:03:33;9.73;;;8.02;;
32501;SDS011;18952;52.516;13.460;2024-02-26T02:06:00;8.65;;;7.75;;
32501;SDS011;18952;52.516;13.460;2024-02-26T02:08:28;9.40;;;7.93;;
32501;SDS011;18952;52.516;13.460;2024-02-26T02:10:54;8.77;;;7.43;;
32501;SDS011;18952;52.516;13.460;2024-02-26T02:13:23;8.98;;;7.35;;
32501;SDS011;18952;52.516;13.460;2024-02-26T02:15:50;8.43;;;6.97;;
32501;SDS011;18952;52.516;13.460;2024-02-26T02:18:17;8.13;;;7.28;;
32501;SDS011;18952;52.516;13.460;2024-02-26T02:20:45;8.07;;;7.28;;
32501;SDS011;18952;52.516;13.460;2024-02-26T02:23:12;8.95;;;7.07;;
32501;SDS011;18952;52.516;13.460;2024-02-26T02:25:39;8.30;;;7.20;;
32501;SDS011;18952;52.516;13.460;2024-02-26T02:28:06;8.10;;;7.28;;
32501;SDS011;18952;52.516;13.460;2024-02-26T02:30:33;9.03;;;7.10;;
32501;SDS011;18952;52.516;13.460;2024-02-26T02:33:00;9.68;;;7.30;;
32501;SDS011;18952;52.516;13.460;2024-02-26T02:35:27;8.45;;;6.70;;
32501;SDS011;18952;52.516;13.460;2024-02-26T02:37:55;9.00;;;6.72;;
32501;SDS011;18952;52.516;13.460;2024-02-26T02:40:23;7.50;;;6.77;;
32501;SDS011;18952;52.516;13.460;2024-02-26T02:42:50;8.00;;;6.65;;
32501;SDS011;18952;52.516;13.460;2024-02-26T02:45:17;7.15;;;6.45;;
32501;SDS011;18952;52.516;13.460;2024-02-26T02:47:44;7.00;;;6.30;;
32501;SDS011;18952;52.516;13.460;2024-02-26T02:50:11;8.68;;;6.90;;
32501;SDS011;18952;52.516;13.460;2024-02-26T02:52:37;7.70;;;6.20;;
32501;SDS011;18952;52.516;13.460;2024-02-26T02:55:04;8.38;;;6.35;;
32501;SDS011;18952;52.516;13.460;2024-02-26T02:57:31;7.22;;;6.40;;
32501;SDS011;18952;52.516;13.460;2024-02-26T02:59:59;6.65;;;6.05;;
32501;SDS011;18952;52.516;13.460;2024-02-26T03:02:26;7.53;;;6.32;;
32501;SDS011;18952;52.516;13.460;2024-02-26T03:04:53;7.27;;;6.53;;
32501;SDS011;18952;52.516;13.460;2024-02-26T03:07:20;8.15;;;6.40;;
32501;SDS011;18952;52.516;13.460;2024-02-26T03:09:47;7.53;;;6.20;;
32501;SDS011;18952;52.516;13.460;2024-02-26T03:12:14;7.60;;;6.77;;
32501;SDS011;18952;52.516;13.460;2024-02-26T03:14:41;7.55;;;6.85;;
32501;SDS011;18952;52.516;13.460;2024-02-26T03:17:07;7.60;;;6.85;;
32501;SDS011;18952;52.516;13.460;2024-02-26T03:19:34;8.23;;;6.93;;
32501;SDS011;18952;52.516;13.460;2024-02-26T03:22:01;11.98;;;7.10;;
32501;SDS011;18952;52.516;13.460;2024-02-26T03:24:28;11.90;;;7.90;;
32501;SDS011;18952;52.516;13.460;2024-02-26T03:26:55;8.52;;;7.57;;
32501;SDS011;18952;52.516;13.460;2024-02-26T03:29:22;10.50;;;7.80;;
32501;SDS011;18952;52.516;13.460;2024-02-26T03:31:48;8.52;;;7.55;;
32501;SDS011;18952;52.516;13.460;2024-02-26T03:34:15;10.45;;;7.95;;
32501;SDS011;18952;52.516;13.460;2024-02-26T03:36:42;9.73;;;8.25;;
32501;SDS011;18952;52.516;13.460;2024-02-26T03:39:09;8.73;;;7.60;;
32501;SDS011;18952;52.516;13.460;2024-02-26T03:41:37;8.70;;;7.80;;
32501;SDS011;18952;52.516;13.460;2024-02-26T03:44:04;10.23;;;8.13;;
32501;SDS011;18952;52.516;13.460;2024-02-26T03:46:31;11.07;;;8.68;;
32501;SDS011;18952;52.516;13.460;2024-02-26T03:48:58;12.60;;;8.40;;
32501;SDS011;18952;52.516;13.460;2024-02-26T03:51:25;8.68;;;7.80;;
32501;SDS011;18952;52.516;13.460;2024-02-26T03:53:53;9.77;;;8.68;;
32501;SDS011;18952;52.516;13.460;2024-02-26T03:56:20;10.25;;;8.82;;
32501;SDS011;18952;52.516;13.460;2024-02-26T03:58:47;9.23;;;8.23;;
32501;SDS011;18952;52.516;13.460;2024-02-26T04:01:14;10.15;;;8.75;;
32501;SDS011;18952;52.516;13.460;2024-02-26T04:03:41;10.67;;;8.77;;
32501;SDS011;18952;52.516;13.460;2024-02-26T04:06:11;10.93;;;9.80;;
32501;SDS011;18952;52.516;13.460;2024-02-26T04:08:38;14.82;;;10.85;;
32501;SDS011;18952;52.516;13.460;2024-02-26T04:11:05;20.10;;;11.82;;
32501;SDS011;18952;52.516;13.460;2024-02-26T04:13:31;18.10;;;12.60;;
32501;SDS011;18952;52.516;13.460;2024-02-26T04:15:59;17.27;;;12.73;;
32501;SDS011;18952;52.516;13.460;2024-02-26T04:18:26;19.67;;;13.73;;
32501;SDS011;18952;52.516;13.460;2024-02-26T04:20:54;23.02;;;14.40;;
32501;SDS011;18952;52.516;13.460;2024-02-26T04:23:21;21.23;;;13.98;;
32501;SDS011;18952;52.516;13.460;2024-02-26T04:25:47;22.00;;;13.93;;
32501;SDS011;18952;52.516;13.460;2024-02-26T04:28:14;21.00;;;13.77;;
32501;SDS011;18952;52.516;13.460;2024-02-26T04:30:41;17.88;;;12.48;;
32501;SDS011;18952;52.516;13.460;2024-02-26T04:33:08;17.05;;;13.07;;
32501;SDS011;18952;52.516;13.460;2024-02-26T04:35:35;17.83;;;12.88;;
32501;SDS011;18952;52.516;13.460;2024-02-26T04:38:02;20.25;;;12.57;;
32501;SDS011;18952;52.516;13.460;2024-02-26T04:40:29;14.17;;;11.53;;
32501;SDS011;18952;52.516;13.460;2024-02-26T04:42:55;13.35;;;11.95;;
32501;SDS011;18952;52.516;13.460;2024-02-26T04:45:23;14.35;;;11.38;;
32501;SDS011;18952;52.516;13.460;2024-02-26T04:47:50;16.33;;;12.45;;
32501;SDS011;18952;52.516;13.460;2024-02-26T04:50:17;17.53;;;12.80;;
32501;SDS011;18952;52.516;13.460;2024-02-26T04:52:44;20.15;;;14.98;;
32501;SDS011;18952;52.516;13.460;2024-02-26T04:55:11;19.58;;;14.02;;
32501;SDS011;18952;52.516;13.460;2024-02-26T04:57:38;22.95;;;15.60;;
32501;SDS011;18952;52.516;13.460;2024-02-26T05:00:05;23.25;;;16.85;;
32501;SDS011;18952;52.516;13.460;2024-02-26T05:02:32;27.48;;;18.08;;
32501;SDS011;18952;52.516;13.460;2024-02-26T05:04:58;28.58;;;19.58;;
32501;SDS011;18952;52.516;13.460;2024-02-26T05:07:25;33.50;;;18.95;;
32501;SDS011;18952;52.516;13.460;2024-02-26T05:09:53;24.90;;;17.70;;
32501;SDS011;18952;52.516;13.460;2024-02-26T05:12:20;23.15;;;16.35;;
32501;SDS011;18952;52.516;13.460;2024-02-26T05:14:47;26.23;;;17.15;;
32501;SDS011;18952;52.516;13.460;2024-02-26T05:17:15;21.95;;;15.68;;
32501;SDS011;18952;52.516;13.460;2024-02-26T05:19:42;21.15;;;15.57;;
32501;SDS011;18952;52.516;13.460;2024-02-26T05:22:09;22.75;;;14.25;;
32501;SDS011;18952;52.516;13.460;2024-02-26T05:24:37;16.98;;;13.52;;
32501;SDS011;18952;52.516;13.460;2024-02-26T05:27:04;19.05;;;13.80;;
32501;SDS011;18952;52.516;13.460;2024-02-26T05:29:31;17.10;;;14.85;;
32501;SDS011;18952;52.516;13.460;2024-02-26T05:31:58;18.23;;;13.88;;
32501;SDS011;18952;52.516;13.460;2024-02-26T05:34:24;18.77;;;14.43;;
32501;SDS011;18952;52.516;13.460;2024-02-26T05:36:51;21.33;;;14.10;;
32501;SDS011;18952;52.516;13.460;2024-02-26T05:39:18;18.50;;;14.63;;
32501;SDS011;18952;52.516;13.460;2024-02-26T05:41:46;16.37;;;13.43;;
32501;SDS011;18952;52.516;13.460;2024-02-26T05:44:13;21.90;;;14.88;;
32501;SDS011;18952;52.516;13.460;2024-02-26T05:46:42;20.58;;;15.20;;
32501;SDS011;18952;52.516;13.460;2024-02-26T05:49:09;20.80;;;15.57;;
32501;SDS011;18952;52.516;13.460;2024-02-26T05:51:36;21.75;;;15.27;;
32501;SDS011;18952;52.516;13.460;2024-02-26T05:54:02;17.02;;;15.18;;
32501;SDS011;18952;52.516;13.460;2024-02-26T05:56:29;20.40;;;15.70;;
32501;SDS011;18952;52.516;13.460;2024-02-26T05:58:56;20.05;;;15.20;;
32501;SDS011;18952;52.516;13.460;2024-02-26T06:01:23;21.13;;;15.50;;
32501;SDS011;18952;52.516;13.460;2024-02-26T06:03:50;23.35;;;15.95;;
32501;SDS011;18952;52.516;13.460;2024-02-26T06:06:17;19.95;;;16.52;;
32501;SDS011;18952;52.516;13.460;2024-02-26T06:08:44;22.20;;;15.80;;
32501;SDS011;18952;52.516;13.460;2024-02-26T06:11:11;18.92;;;16.05;;
32501;SDS011;18952;52.516;13.460;2024-02-26T06:13:38;19.40;;;16.77;;
32501;SDS011;18952;52.516;13.460;2024-02-26T06:16:05;34.72;;;17.50;;
32501;SDS011;18952;52.516;13.460;2024-02-26T06:18:31;24.65;;;18.00;;
32501;SDS011;18952;52.516;13.460;2024-02-26T06:20:59;25.65;;;18.42;;
32501;SDS011;18952;52.516;13.460;2024-02-26T06:23:25;27.20;;;17.77;;
32501;SDS011;18952;52.516;13.460;2024-02-26T06:25:53;22.67;;;16.97;;
32501;SDS011;18952;52.516;13.460;2024-02-26T06:28:20;23.05;;;18.52;;
32501;SDS011;18952;52.516;13.460;2024-02-26T06:30:47;22.88;;;18.05;;
32501;SDS011;18952;52.516;13.460;2024-02-26T06:33:14;25.92;;;18.90;;
32501;SDS011;18952;52.516;13.460;2024-02-26T06:35:41;22.15;;;18.20;;
32501;SDS011;18952;52.516;13.460;2024-02-26T06:38:08;36.38;;;24.83;;
32501;SDS011;18952;52.516;13.460;2024-02-26T06:40:35;28.92;;;21.75;;
32501;SDS011;18952;52.516;13.460;2024-02-26T06:43:02;27.02;;;20.17;;
32501;SDS011;18952;52.516;13.460;2024-02-26T06:45:29;22.92;;;18.30;;
32501;SDS011;18952;52.516;13.460;2024-02-26T06:47:57;27.17;;;19.50;;
32501;SDS011;18952;52.516;13.460;2024-02-26T06:50:24;56.58;;;23.63;;
32501;SDS011;18952;52.516;13.460;2024-02-26T06:52:51;37.30;;;20.50;;
32501;SDS011;18952;52.516;13.460;2024-02-26T06:55:17;27.77;;;19.25;;
32501;SDS011;18952;52.516;13.460;2024-02-26T06:57:44;22.85;;;18.77;;
32501;SDS011;18952;52.516;13.460;2024-02-26T07:00:11;25.83;;;19.57;;
32501;SDS011;18952;52.516;13.460;2024-02-26T07:02:39;22.45;;;19.10;;
32501;SDS011;18952;52.516;13.460;2024-02-26T07:05:06;23.33;;;19.30;;
32501;SDS011;18952;52.516;13.460;2024-02-26T07:07:33;23.57;;;19.80;;
32501;SDS011;18952;52.516;13.460;2024-02-26T07:10:00;21.58;;;19.27;;
32501;SDS011;18952;52.516;13.460;2024-02-26T07:12:27;24.45;;;19.08;;
32501;SDS011;18952;52.516;13.460;2024-02-26T07:14:54;21.75;;;19.23;;
32501;SDS011;18952;52.516;13.460;2024-02-26T07:17:20;22.83;;;18.67;;
32501;SDS011;18952;52.516;13.460;2024-02-26T07:19:47;25.02;;;18.92;;
32501;SDS011;18952;52.516;13.460;2024-02-26T07:22:20;23.70;;;18.90;;
32501;SDS011;18952;52.516;13.460;2024-02-26T07:24:47;21.85;;;18.38;;
32501;SDS011;18952;52.516;13.460;2024-02-26T07:27:14;26.70;;;18.95;;
32501;SDS011;18952;52.516;13.460;2024-02-26T07:29:40;23.63;;;19.77;;
32501;SDS011;18952;52.516;13.460;2024-02-26T07:32:07;21.65;;;18.67;;
32501;SDS011;18952;52.516;13.460;2024-02-26T07:34:35;23.08;;;19.38;;
32501;SDS011;18952;52.516;13.460;2024-02-26T07:37:02;22.75;;;19.58;;
32501;SDS011;18952;52.516;13.460;2024-02-26T07:39:29;24.02;;;19.65;;
32501;SDS011;18952;52.516;13.460;2024-02-26T07:41:57;22.88;;;20.30;;
32501;SDS011;18952;52.516;13.460;2024-02-26T07:44:25;24.58;;;19.85;;
32501;SDS011;18952;52.516;13.460;2024-02-26T07:46:51;23.02;;;20.10;;
32501;SDS011;18952;52.516;13.460;2024-02-26T07:49:18;22.85;;;20.08;;
32501;SDS011;18952;52.516;13.460;2024-02-26T07:51:45;21.17;;;18.95;;
32501;SDS011;18952;52.516;13.460;2024-02-26T07:54:12;24.93;;;19.83;;
32501;SDS011;18952;52.516;13.460;2024-02-26T07:56:41;25.52;;;19.67;;
32501;SDS011;18952;52.516;13.460;2024-02-26T07:59:11;25.70;;;19.83;;
32501;SDS011;18952;52.516;13.460;2024-02-26T08:01:37;21.95;;;19.05;;
32501;SDS011;18952;52.516;13.460;2024-02-26T08:04:04;24.42;;;19.40;;
32501;SDS011;18952;52.516;13.460;2024-02-26T08:06:33;22.25;;;19.92;;
32501;SDS011;18952;52.516;13.460;2024-02-26T08:09:05;25.90;;;19.35;;
32501;SDS011;18952;52.516;13.460;2024-02-26T08:11:31;22.40;;;19.93;;
32501;SDS011;18952;52.516;13.460;2024-02-26T08:14:00;23.33;;;20.20;;
32501;SDS011;18952;52.516;13.460;2024-02-26T08:16:30;31.77;;;20.53;;
32501;SDS011;18952;52.516;13.460;2024-02-26T08:19:00;23.43;;;20.87;;
32501;SDS011;18952;52.516;13.460;2024-02-26T08:21:27;26.73;;;21.23;;
32501;SDS011;18952;52.516;13.460;2024-02-26T08:23:54;27.65;;;21.98;;
32501;SDS011;18952;52.516;13.460;2024-02-26T08:26:22;23.90;;;20.40;;
32501;SDS011;18952;52.516;13.460;2024-02-26T08:28:49;21.55;;;19.25;;
32501;SDS011;18952;52.516;13.460;2024-02-26T08:31:18;23.25;;;19.20;;
32501;SDS011;18952;52.516;13.460;2024-02-26T08:33:46;23.52;;;18.80;;
32501;SDS011;18952;52.516;13.460;2024-02-26T08:36:13;24.00;;;19.53;;
32501;SDS011;18952;52.516;13.460;2024-02-26T08:38:41;23.90;;;19.35;;
32501;SDS011;18952;52.516;13.460;2024-02-26T08:41:08;23.33;;;19.55;;
32501;SDS011;18952;52.516;13.460;2024-02-26T08:43:37;22.90;;;19.15;;
32501;SDS011;18952;52.516;13.460;2024-02-26T08:46:04;32.35;;;19.27;;
32501;SDS011;18952;52.516;13.460;2024-02-26T08:48:35;24.15;;;19.77;;
32501;SDS011;18952;52.516;13.460;2024-02-26T08:51:04;22.48;;;18.92;;
32501;SDS011;18952;52.516;13.460;2024-02-26T08:53:36;27.65;;;18.85;;
32501;SDS011;18952;52.516;13.460;2024-02-26T08:56:10;23.60;;;18.45;;
32501;SDS011;18952;52.516;13.460;2024-02-26T08:58:39;26.30;;;18.63;;
32501;SDS011;18952;52.516;13.460;2024-02-26T09:01:05;29.85;;;21.17;;
32501;SDS011;18952;52.516;13.460;2024-02-26T09:03:41;23.77;;;18.67;;
32501;SDS011;18952;52.516;13.460;2024-02-26T09:06:10;23.50;;;18.50;;
32501;SDS011;18952;52.516;13.460;2024-02-26T09:08:42;26.15;;;18.88;;
32501;SDS011;18952;52.516;13.460;2024-02-26T09:11:10;23.00;;;17.88;;
32501;SDS011;18952;52.516;13.460;2024-02-26T09:13:38;22.05;;;18.08;;
32501;SDS011;18952;52.516;13.460;2024-02-26T09:16:06;28.37;;;17.67;;
32501;SDS011;18952;52.516;13.460;2024-02-26T09:18:32;25.70;;;18.07;;
32501;SDS011;18952;52.516;13.460;2024-02-26T09:20:59;21.17;;;16.85;;
32501;SDS011;18952;52.516;13.460;2024-02-26T09:23:31;26.15;;;19.45;;
32501;SDS011;18952;52.516;13.460;2024-02-26T09:25:58;21.10;;;16.90;;
32501;SDS011;18952;52.516;13.460;2024-02-26T09:28:26;19.40;;;16.88;;
32501;SDS011;18952;52.516;13.460;2024-02-26T09:30:53;24.25;;;18.05;;
32501;SDS011;18952;52.516;13.460;2024-02-26T09:33:20;21.23;;;16.70;;
32501;SDS011;18952;52.516;13.460;2024-02-26T09:35:49;22.70;;;17.05;;
32501;SDS011;18952;52.516;13.460;2024-02-26T09:38:15;24.25;;;18.00;;
32501;SDS011;18952;52.516;13.460;2024-02-26T09:40:44;27.00;;;17.38;;
32501;SDS011;18952;52.516;13.460;2024-02-26T09:43:12;21.58;;;17.40;;
32501;SDS011;18952;52.516;13.460;2024-02-26T09:45:41;24.95;;;17.48;;
32501;SDS011;18952;52.516;13.460;2024-02-26T09:48:10;18.20;;;16.15;;
32501;SDS011;18952;52.516;13.460;2024-02-26T09:50:42;20.55;;;16.88;;
32501;SDS011;18952;52.516;13.460;2024-02-26T09:53:11;21.55;;;16.23;;
32501;SDS011;18952;52.516;13.460;2024-02-26T09:55:38;29.80;;;18.58;;
32501;SDS011;18952;52.516;13.460;2024-02-26T09:58:05;20.17;;;17.13;;
32501;SDS011;18952;52.516;13.460;2024-02-26T10:00:36;17.85;;;15.10;;
32501;SDS011;18952;52.516;13.460;2024-02-26T10:03:06;22.13;;;15.82;;
32501;SDS011;18952;52.516;13.460;2024-02-26T10:05:41;17.75;;;14.82;;
32501;SDS011;18952;52.516;13.460;2024-02-26T10:08:14;25.02;;;15.43;;
32501;SDS011;18952;52.516;13.460;2024-02-26T10:10:41;20.05;;;15.60;;
32501;SDS011;18952;52.516;13.460;2024-02-26T10:13:08;17.77;;;14.77;;
32501;SDS011;18952;52.516;13.460;2024-02-26T10:15:37;19.90;;;15.45;;
32501;SDS011;18952;52.516;13.460;2024-02-26T10:18:07;17.73;;;14.20;;
32501;SDS011;18952;52.516;13.460;2024-02-26T10:20:35;16.70;;;14.25;;
32501;SDS011;18952;52.516;13.460;2024-02-26T10:23:06;20.75;;;14.82;;
32501;SDS011;18952;52.516;13.460;2024-02-26T10:25:36;18.65;;;14.43;;
32501;SDS011;18952;52.516;13.460;2024-02-26T10:28:03;20.95;;;15.02;;
32501;SDS011;18952;52.516;13.460;2024-02-26T10:30:31;19.75;;;14.80;;
32501;SDS011;18952;52.516;13.460;2024-02-26T10:33:04;19.77;;;15.00;;
32501;SDS011;18952;52.516;13.460;2024-02-26T10:35:31;17.17;;;14.93;;
32501;SDS011;18952;52.516;13.460;2024-02-26T10:38:00;17.00;;;14.40;;
32501;SDS011;18952;52.516;13.460;2024-02-26T10:40:27;19.33;;;13.75;;
32501;SDS011;18952;52.516;13.460;2024-02-26T10:42:55;22.45;;;14.30;;
32501;SDS011;18952;52.516;13.460;2024-02-26T10:45:25;18.60;;;13.50;;
32501;SDS011;18952;52.516;13.460;2024-02-26T10:47:55;18.85;;;12.88;;
32501;SDS011;18952;52.516;13.460;2024-02-26T10:50:24;16.00;;;12.85;;
32501;SDS011;18952;52.516;13.460;2024-02-26T10:52:55;15.57;;;13.05;;
32501;SDS011;18952;52.516;13.460;2024-02-26T10:55:26;18.58;;;12.18;;
32501;SDS011;18952;52.516;13.460;2024-02-26T10:57:54;16.52;;;11.30;;
32501;SDS011;18952;52.516;13.460;2024-02-26T11:00:24;17.53;;;11.87;;
32501;SDS011;18952;52.516;13.460;2024-02-26T11:02:51;15.20;;;11.53;;
32501;SDS011;18952;52.516;13.460;2024-02-26T11:05:22;19.02;;;11.40;;
32501;SDS011;18952;52.516;13.460;2024-02-26T11:07:51;16.27;;;12.25;;
32501;SDS011;18952;52.516;13.460;2024-02-26T11:10:19;17.77;;;10.90;;
32501;SDS011;18952;52.516;13.460;2024-02-26T11:12:49;23.40;;;14.63;;
32501;SDS011;18952;52.516;13.460;2024-02-26T11:15:20;14.45;;;10.52;;
32501;SDS011;18952;52.516;13.460;2024-02-26T11:17:49;17.90;;;11.10;;
32501;SDS011;18952;52.516;13.460;2024-02-26T11:20:19;24.73;;;11.70;;
32501;SDS011;18952;52.516;13.460;2024-02-26T11:22:47;12.93;;;10.27;;
32501;SDS011;18952;52.516;13.460;2024-02-26T11:25:13;16.73;;;10.40;;
32501;SDS011;18952;52.516;13.460;2024-02-26T11:27:44;14.98;;;10.68;;
32501;SDS011;18952;52.516;13.460;2024-02-26T11:30:19;17.38;;;10.55;;
32501;SDS011;18952;52.516;13.460;2024-02-26T11:32:49;15.10;;;10.60;;
32501;SDS011;18952;52.516;13.460;2024-02-26T11:35:18;11.43;;;9.90;;
32501;SDS011;18952;52.516;13.460;2024-02-26T11:37:56;12.10;;;9.80;;
32501;SDS011;18952;52.516;13.460;2024-02-26T11:40:24;17.75;;;10.18;;
32501;SDS011;18952;52.516;13.460;2024-02-26T11:42:52;12.63;;;10.68;;
32501;SDS011;18952;52.516;13.460;2024-02-26T11:48:22;14.43;;;10.40;;
32501;SDS011;18952;52.516;13.460;2024-02-26T11:50:51;17.35;;;12.90;;
32501;SDS011;18952;52.516;13.460;2024-02-26T11:53:30;17.05;;;11.85;;
32501;SDS011;18952;52.516;13.460;2024-02-26T11:58:46;14.32;;;12.10;;
32501;SDS011;18952;52.516;13.460;2024-02-26T12:04:19;15.43;;;12.32;;
32501;SDS011;18952;52.516;13.460;2024-02-26T12:06:57;13.65;;;12.25;;
32501;SDS011;18952;52.516;13.460;2024-02-26T12:12:09;16.23;;;12.98;;
32501;SDS011;18952;52.516;13.460;2024-02-26T12:14:56;14.70;;;12.63;;
32501;SDS011;18952;52.516;13.460;2024-02-26T12:17:25;17.15;;;13.05;;
32501;SDS011;18952;52.516;13.460;2024-02-26T12:20:07;18.88;;;12.80;;
32501;SDS011;18952;52.516;13.460;2024-02-26T12:22:40;17.63;;;12.88;;
32501;SDS011;18952;52.516;13.460;2024-02-26T12:25:12;13.88;;;12.00;;
32501;SDS011;18952;52.516;13.460;2024-02-26T12:27:40;13.55;;;11.55;;
32501;SDS011;18952;52.516;13.460;2024-02-26T12:30:09;17.80;;;12.57;;
32501;SDS011;18952;52.516;13.460;2024-02-26T12:32:37;13.23;;;11.57;;
32501;SDS011;18952;52.516;13.460;2024-02-26T12:35:05;14.55;;;11.68;;
32501;SDS011;18952;52.516;13.460;2024-02-26T12:37:34;14.70;;;11.05;;
32501;SDS011;18952;52.516;13.460;2024-02-26T12:40:01;15.88;;;11.18;;
32501;SDS011;18952;52.516;13.460;2024-02-26T12:42:28;14.30;;;12.30;;
32501;SDS011;18952;52.516;13.460;2024-02-26T12:44:55;13.30;;;11.45;;
32501;SDS011;18952;52.516;13.460;2024-02-26T12:47:24;12.90;;;11.05;;
32501;SDS011;18952;52.516;13.460;2024-02-26T12:49:51;13.38;;;10.55;;
32501;SDS011;18952;52.516;13.460;2024-02-26T12:52:18;10.85;;;9.65;;
32501;SDS011;18952;52.516;13.460;2024-02-26T12:54:47;22.60;;;13.00;;
32501;SDS011;18952;52.516;13.460;2024-02-26T12:57:15;13.73;;;9.40;;
32501;SDS011;18952;52.516;13.460;2024-02-26T12:59:44;14.70;;;9.98;;
32501;SDS011;18952;52.516;13.460;2024-02-26T13:02:12;10.93;;;9.15;;
32501;SDS011;18952;52.516;13.460;2024-02-26T13:04:41;15.05;;;9.75;;
32501;SDS011;18952;52.516;13.460;2024-02-26T13:07:09;11.38;;;8.65;;
32501;SDS011;18952;52.516;13.460;2024-02-26T13:09:38;13.85;;;8.85;;
32501;SDS011;18952;52.516;13.460;2024-02-26T13:12:07;12.27;;;9.33;;
32501;SDS011;18952;52.516;13.460;2024-02-26T13:14:36;10.80;;;7.95;;
32501;SDS011;18952;52.516;13.460;2024-02-26T13:17:03;12.23;;;10.02;;
32501;SDS011;18952;52.516;13.460;2024-02-26T13:19:32;8.13;;;6.95;;
32501;SDS011;18952;52.516;13.460;2024-02-26T13:22:05;9.83;;;7.60;;
32501;SDS011;18952;52.516;13.460;2024-02-26T13:24:37;10.73;;;7.70;;
32501;SDS011;18952;52.516;13.460;2024-02-26T13:27:04;9.07;;;7.28;;
32501;SDS011;18952;52.516;13.460;2024-02-26T13:29:31;9.23;;;7.38;;
32501;SDS011;18952;52.516;13.460;2024-02-26T13:32:03;9.80;;;7.10;;
32501;SDS011;18952;52.516;13.460;2024-02-26T13:34:31;8.35;;;6.70;;
32501;SDS011;18952;52.516;13.460;2024-02-26T13:36:58;8.82;;;6.78;;
32501;SDS011;18952;52.516;13.460;2024-02-26T13:39:25;9.80;;;6.82;;
32501;SDS011;18952;52.516;13.460;2024-02-26T13:41:54;10.05;;;7.13;;
32501;SDS011;18952;52.516;13.460;2024-02-26T13:44:21;9.57;;;6.80;;
32501;SDS011;18952;52.516;13.460;2024-02-26T13:46:48;7.65;;;6.68;;
32501;SDS011;18952;52.516;13.460;2024-02-26T13:49:18;10.65;;;7.30;;
32501;SDS011;18952;52.516;13.460;2024-02-26T13:51:51;13.00;;;7.60;;
32501;SDS011;18952;52.516;13.460;2024-02-26T13:54:19;10.73;;;6.95;;
32501;SDS011;18952;52.516;13.460;2024-02-26T13:56:46;7.63;;;6.63;;
32501;SDS011;18952;52.516;13.460;2024-02-26T13:59:15;10.98;;;7.53;;
32501;SDS011;18952;52.516;13.460;2024-02-26T14:01:43;9.55;;;6.53;;
32501;SDS011;18952;52.516;13.460;2024-02-26T14:04:11;10.90;;;6.55;;
32501;SDS011;18952;52.516;13.460;2024-02-26T14:06:40;14.23;;;6.57;;
32501;SDS011;18952;52.516;13.460;2024-02-26T14:09:09;9.73;;;7.43;;
32501;SDS011;18952;52.516;13.460;2024-02-26T14:11:36;10.50;;;7.00;;
32501;SDS011;18952;52.516;13.460;2024-02-26T14:14:04;11.45;;;7.13;;
32501;SDS011;18952;52.516;13.460;2024-02-26T14:16:32;8.82;;;7.20;;
32501;SDS011;18952;52.516;13.460;2024-02-26T14:18:59;14.30;;;8.30;;
32501;SDS011;18952;52.516;13.460;2024-02-26T14:21:26;13.52;;;8.27;;
32501;SDS011;18952;52.516;13.460;2024-02-26T14:23:55;9.20;;;7.20;;
32501;SDS011;18952;52.516;13.460;2024-02-26T14:26:24;10.60;;;7.80;;
32501;SDS011;18952;52.516;13.460;2024-02-26T14:28:50;10.73;;;7.50;;
32501;SDS011;18952;52.516;13.460;2024-02-26T14:31:17;12.18;;;8.43;;